TimeEDT,TemperatureF,Dew PointF,Humidity,Sea Level PressureIn,VisibilityMPH,Wind Direction,Wind SpeedMPH,Gust SpeedMPH,PrecipitationIn,Events,Conditions,WindDirDegrees,DateUTC
12:54 AM,28.0,23.0,81,29.91,1.8,West,12.7,24.2,0.04,Snow,Light Snow,280,2014-04-16 04:54:00
12:56 AM,28.0,23.0,81,29.90,3.0,West,15.0,24.2,0.00,Snow,Light Snow,270,2014-04-16 04:56:00
1:04 AM,28.0,24.1,85,29.91,9.0,West,11.5,23.0,0.00,,Overcast,270,2014-04-16 05:04:00
1:16 AM,28.0,23.0,81,29.91,10.0,West,9.2,23.0,0.00,,Overcast,280,2014-04-16 05:16:00
1:54 AM,28.0,23.0,81,29.92,10.0,West,10.4,20.7,0.00,,Mostly Cloudy,260,2014-04-16 05:54:00
2:09 AM,28.0,21.9,78,29.91,10.0,West,11.5,18.4,N/A,,Mostly Cloudy,280,2014-04-16 06:09:00
2:54 AM,28.0,21.9,78,29.96,10.0,WNW,11.5,18.4,N/A,,Overcast,290,2014-04-16 06:54:00
3:46 AM,27.0,18.0,69,29.99,10.0,NW,11.5,24.2,N/A,,Overcast,320,2014-04-16 07:46:00
3:54 AM,27.0,18.0,69,29.99,10.0,NNW,12.7,20.7,N/A,,Overcast,340,2014-04-16 07:54:00
4:52 AM,24.8,15.8,69,30.08,10.0,NNW,9.2,-,N/A,,Clear,330,2014-04-16 08:52:00
4:54 AM,25.0,16.0,69,30.11,10.0,NNW,8.1,-,N/A,,Clear,330,2014-04-16 08:54:00
5:54 AM,23.0,15.1,72,30.11,10.0,NNW,8.1,-,N/A,,Clear,330,2014-04-16 09:54:00
6:54 AM,23.0,15.1,72,30.19,10.0,NW,4.6,-,N/A,,Mostly Cloudy,310,2014-04-16 10:54:00
7:54 AM,24.1,14.0,65,30.24,10.0,NW,9.2,-,N/A,,Clear,310,2014-04-16 11:54:00
8:54 AM,24.1,10.9,57,30.29,10.0,NW,10.4,-,N/A,,Scattered Clouds,320,2014-04-16 12:54:00
9:54 AM,26.1,12.9,58,30.32,10.0,NNW,5.8,17.3,N/A,,Mostly Cloudy,330,2014-04-16 13:54:00
10:54 AM,28.0,14.0,56,30.36,10.0,Variable,6.9,-,N/A,,Mostly Cloudy,0,2014-04-16 14:54:00
11:54 AM,30.0,14.0,51,30.39,10.0,NW,13.8,19.6,N/A,,Scattered Clouds,310,2014-04-16 15:54:00
12:54 PM,30.9,12.9,47,30.41,10.0,NW,11.5,19.6,N/A,,Clear,310,2014-04-16 16:54:00
1:54 PM,33.1,16.0,50,30.42,10.0,NW,10.4,-,N/A,,Clear,320,2014-04-16 17:54:00
2:54 PM,34.0,16.0,48,30.44,10.0,North,10.4,-,N/A,,Mostly Cloudy,10,2014-04-16 18:54:00
3:54 PM,36.0,17.1,46,30.45,10.0,North,3.5,-,N/A,,Mostly Cloudy,360,2014-04-16 19:54:00
4:54 PM,37.0,15.1,41,30.46,10.0,Variable,3.5,-,N/A,,Scattered Clouds,0,2014-04-16 20:54:00
5:54 PM,37.9,15.1,39,30.47,10.0,North,4.6,-,N/A,,Clear,360,2014-04-16 21:54:00
6:54 PM,37.0,14.0,39,30.49,10.0,NNW,4.6,-,N/A,,Clear,330,2014-04-16 22:54:00
7:54 PM,30.9,19.9,64,30.52,10.0,Calm,Calm,-,N/A,,Clear,0,2014-04-16 23:54:00
8:54 PM,30.0,19.9,66,30.55,10.0,South,3.5,-,N/A,,Clear,190,2014-04-17 00:54:00
9:54 PM,27.0,21.9,81,30.57,10.0,Calm,Calm,-,N/A,,Clear,0,2014-04-17 01:54:00
10:54 PM,27.0,18.0,69,30.58,10.0,Calm,Calm,-,N/A,,Clear,0,2014-04-17 02:54:00
11:54 PM,28.9,17.1,61,30.60,10.0,NNE,5.8,-,N/A,,Clear,20,2014-04-17 03:54:00